sensor_id;sensor_type;location;lat;lon;timestamp;P1;durP1;ratioP1;P2;durP2;ratioP2
15271;SDS011;7737;51.578;7.268;2023-01-26T00:01:45;91.10;;;47.90;;
15271;SDS011;7737;51.578;7.268;2023-01-26T00:04:11;95.60;;;49.87;;
15271;SDS011;7737;51.578;7.268;2023-01-26T00:06:37;93.73;;;50.33;;
15271;SDS011;7737;51.578;7.268;2023-01-26T00:09:04;94.20;;;48.53;;
15271;SDS011;7737;51.578;7.268;2023-01-26T00:11:30;98.57;;;49.60;;
15271;SDS011;7737;51.578;7.268;2023-01-26T00:13:58;96.53;;;48.87;;
15271;SDS011;7737;51.578;7.268;2023-01-26T00:16:25;97.50;;;49.73;;
15271;SDS011;7737;51.578;7.268;2023-01-26T00:18:52;93.70;;;49.93;;
15271;SDS011;7737;51.578;7.268;2023-01-26T00:21:19;93.43;;;48.70;;
15271;SDS011;7737;51.578;7.268;2023-01-26T00:23:46;92.50;;;47.53;;
15271;SDS011;7737;51.578;7.268;2023-01-26T00:26:13;94.13;;;48.63;;
15271;SDS011;7737;51.578;7.268;2023-01-26T00:28:40;88.20;;;45.80;;
15271;SDS011;7737;51.578;7.268;2023-01-26T00:31:09;95.13;;;46.10;;
15271;SDS011;7737;51.578;7.268;2023-01-26T00:33:37;88.73;;;45.63;;
15271;SDS011;7737;51.578;7.268;2023-01-26T00:36:04;89.57;;;45.97;;
15271;SDS011;7737;51.578;7.268;2023-01-26T00:38:30;85.23;;;45.30;;
15271;SDS011;7737;51.578;7.268;2023-01-26T00:40:56;90.97;;;46.40;;
15271;SDS011;7737;51.578;7.268;2023-01-26T00:43:23;88.70;;;45.97;;
15271;SDS011;7737;51.578;7.268;2023-01-26T00:45:49;87.80;;;45.13;;
15271;SDS011;7737;51.578;7.268;2023-01-26T00:48:17;87.97;;;45.17;;
15271;SDS011;7737;51.578;7.268;2023-01-26T00:50:43;89.80;;;44.77;;
15271;SDS011;7737;51.578;7.268;2023-01-26T00:53:09;92.27;;;45.97;;
15271;SDS011;7737;51.578;7.268;2023-01-26T00:55:36;86.90;;;44.93;;
15271;SDS011;7737;51.578;7.268;2023-01-26T00:58:03;92.50;;;46.33;;
15271;SDS011;7737;51.578;7.268;2023-01-26T01:00:30;89.80;;;45.60;;
15271;SDS011;7737;51.578;7.268;2023-01-26T01:02:57;94.00;;;45.97;;
15271;SDS011;7737;51.578;7.268;2023-01-26T01:05:25;94.17;;;46.67;;
15271;SDS011;7737;51.578;7.268;2023-01-26T01:07:52;92.73;;;47.67;;
15271;SDS011;7737;51.578;7.268;2023-01-26T01:10:18;94.17;;;45.83;;
15271;SDS011;7737;51.578;7.268;2023-01-26T01:12:45;96.60;;;47.20;;
15271;SDS011;7737;51.578;7.268;2023-01-26T01:15:11;86.23;;;45.13;;
15271;SDS011;7737;51.578;7.268;2023-01-26T01:17:38;93.50;;;45.87;;
15271;SDS011;7737;51.578;7.268;2023-01-26T01:20:05;90.73;;;45.17;;
15271;SDS011;7737;51.578;7.268;2023-01-26T01:22:33;92.80;;;45.83;;
15271;SDS011;7737;51.578;7.268;2023-01-26T01:25:00;96.17;;;46.80;;
15271;SDS011;7737;51.578;7.268;2023-01-26T01:27:26;92.40;;;45.50;;
15271;SDS011;7737;51.578;7.268;2023-01-26T01:29:52;94.80;;;48.03;;
15271;SDS011;7737;51.578;7.268;2023-01-26T01:32:19;96.97;;;46.60;;
15271;SDS011;7737;51.578;7.268;2023-01-26T01:34:45;89.73;;;44.27;;
15271;SDS011;7737;51.578;7.268;2023-01-26T01:37:12;90.57;;;45.07;;
15271;SDS011;7737;51.578;7.268;2023-01-26T01:39:40;91.00;;;45.23;;
15271;SDS011;7737;51.578;7.268;2023-01-26T01:42:06;92.23;;;45.10;;
15271;SDS011;7737;51.578;7.268;2023-01-26T01:44:33;92.97;;;44.37;;
15271;SDS011;7737;51.578;7.268;2023-01-26T01:47:00;89.93;;;44.47;;
15271;SDS011;7737;51.578;7.268;2023-01-26T01:49:28;87.43;;;44.63;;
15271;SDS011;7737;51.578;7.268;2023-01-26T01:51:56;91.33;;;44.33;;
15271;SDS011;7737;51.578;7.268;2023-01-26T01:54:25;86.47;;;43.73;;
15271;SDS011;7737;51.578;7.268;2023-01-26T01:56:55;96.57;;;45.93;;
15271;SDS011;7737;51.578;7.268;2023-01-26T01:59:22;93.33;;;45.07;;
15271;SDS011;7737;51.578;7.268;2023-01-26T02:01:49;88.90;;;43.97;;
15271;SDS011;7737;51.578;7.268;2023-01-26T02:04:17;93.90;;;44.63;;
15271;SDS011;7737;51.578;7.268;2023-01-26T02:06:45;89.37;;;44.50;;
15271;SDS011;7737;51.578;7.268;2023-01-26T02:09:12;90.10;;;44.70;;
15271;SDS011;7737;51.578;7.268;2023-01-26T02:12:00;91.47;;;44.40;;
15271;SDS011;7737;51.578;7.268;2023-01-26T02:14:27;92.20;;;44.53;;
15271;SDS011;7737;51.578;7.268;2023-01-26T02:16:53;91.23;;;43.37;;
15271;SDS011;7737;51.578;7.268;2023-01-26T02:19:21;87.47;;;42.57;;
15271;SDS011;7737;51.578;7.268;2023-01-26T02:21:51;80.87;;;41.33;;
15271;SDS011;7737;51.578;7.268;2023-01-26T02:24:21;91.63;;;42.33;;
15271;SDS011;7737;51.578;7.268;2023-01-26T02:26:51;80.33;;;39.70;;
15271;SDS011;7737;51.578;7.268;2023-01-26T02:29:18;86.13;;;40.80;;
15271;SDS011;7737;51.578;7.268;2023-01-26T02:31:45;84.90;;;41.87;;
15271;SDS011;7737;51.578;7.268;2023-01-26T02:34:11;87.80;;;41.13;;
15271;SDS011;7737;51.578;7.268;2023-01-26T02:36:38;90.47;;;41.10;;
15271;SDS011;7737;51.578;7.268;2023-01-26T02:39:15;91.33;;;40.63;;
15271;SDS011;7737;51.578;7.268;2023-01-26T02:41:42;89.53;;;41.33;;
15271;SDS011;7737;51.578;7.268;2023-01-26T02:44:29;90.57;;;41.33;;
15271;SDS011;7737;51.578;7.268;2023-01-26T02:46:56;92.27;;;41.10;;
15271;SDS011;7737;51.578;7.268;2023-01-26T02:49:22;87.93;;;40.87;;
15271;SDS011;7737;51.578;7.268;2023-01-26T02:52:06;82.13;;;39.17;;
15271;SDS011;7737;51.578;7.268;2023-01-26T02:54:33;86.67;;;41.20;;
15271;SDS011;7737;51.578;7.268;2023-01-26T02:57:16;86.80;;;40.47;;
15271;SDS011;7737;51.578;7.268;2023-01-26T02:59:44;84.73;;;39.17;;
15271;SDS011;7737;51.578;7.268;2023-01-26T03:02:10;87.70;;;39.70;;
15271;SDS011;7737;51.578;7.268;2023-01-26T03:04:37;84.97;;;39.93;;
15271;SDS011;7737;51.578;7.268;2023-01-26T03:07:03;92.80;;;41.93;;
15271;SDS011;7737;51.578;7.268;2023-01-26T03:09:29;89.13;;;40.87;;
15271;SDS011;7737;51.578;7.268;2023-01-26T03:11:56;98.37;;;41.77;;
15271;SDS011;7737;51.578;7.268;2023-01-26T03:14:22;88.70;;;41.33;;
15271;SDS011;7737;51.578;7.268;2023-01-26T03:16:50;91.10;;;41.90;;
15271;SDS011;7737;51.578;7.268;2023-01-26T03:19:16;93.17;;;42.53;;
15271;SDS011;7737;51.578;7.268;2023-01-26T03:22:00;93.77;;;42.17;;
15271;SDS011;7737;51.578;7.268;2023-01-26T03:24:44;94.87;;;42.43;;
15271;SDS011;7737;51.578;7.268;2023-01-26T03:27:29;98.00;;;42.10;;
15271;SDS011;7737;51.578;7.268;2023-01-26T03:29:56;92.77;;;41.70;;
15271;SDS011;7737;51.578;7.268;2023-01-26T03:32:24;100.43;;;43.53;;
15271;SDS011;7737;51.578;7.268;2023-01-26T03:34:50;102.33;;;44.77;;
15271;SDS011;7737;51.578;7.268;2023-01-26T03:37:16;100.73;;;44.87;;
15271;SDS011;7737;51.578;7.268;2023-01-26T03:39:46;100.80;;;43.37;;
15271;SDS011;7737;51.578;7.268;2023-01-26T03:42:29;106.50;;;44.40;;
15271;SDS011;7737;51.578;7.268;2023-01-26T03:45:13;104.50;;;44.13;;
15271;SDS011;7737;51.578;7.268;2023-01-26T03:48:06;111.83;;;46.17;;
15271;SDS011;7737;51.578;7.268;2023-01-26T03:50:50;116.60;;;47.77;;
15271;SDS011;7737;51.578;7.268;2023-01-26T03:53:34;113.57;;;46.40;;
15271;SDS011;7737;51.578;7.268;2023-01-26T03:56:18;113.07;;;48.07;;
15271;SDS011;7737;51.578;7.268;2023-01-26T03:58:46;120.50;;;48.30;;
15271;SDS011;7737;51.578;7.268;2023-01-26T04:01:13;120.73;;;48.27;;
15271;SDS011;7737;51.578;7.268;2023-01-26T04:03:45;122.10;;;48.57;;
15271;SDS011;7737;51.578;7.268;2023-01-26T04:06:29;129.83;;;49.70;;
15271;SDS011;7737;51.578;7.268;2023-01-26T04:09:13;120.23;;;47.17;;
15271;SDS011;7737;51.578;7.268;2023-01-26T04:11:40;127.37;;;48.53;;
15271;SDS011;7737;51.578;7.268;2023-01-26T04:14:07;123.87;;;48.23;;
15271;SDS011;7737;51.578;7.268;2023-01-26T04:16:52;124.40;;;46.83;;
15271;SDS011;7737;51.578;7.268;2023-01-26T04:19:38;131.40;;;49.33;;
15271;SDS011;7737;51.578;7.268;2023-01-26T04:22:22;120.07;;;47.03;;
15271;SDS011;7737;51.578;7.268;2023-01-26T04:24:48;122.47;;;48.77;;
15271;SDS011;7737;51.578;7.268;2023-01-26T04:27:14;120.27;;;47.03;;
15271;SDS011;7737;51.578;7.268;2023-01-26T04:29:41;120.90;;;46.80;;
15271;SDS011;7737;51.578;7.268;2023-01-26T04:32:07;122.97;;;49.10;;
15271;SDS011;7737;51.578;7.268;2023-01-26T04:34:33;113.70;;;44.63;;
15271;SDS011;7737;51.578;7.268;2023-01-26T04:37:01;113.90;;;44.93;;
15271;SDS011;7737;51.578;7.268;2023-01-26T04:39:27;113.23;;;45.97;;
15271;SDS011;7737;51.578;7.268;2023-01-26T04:41:54;112.13;;;45.43;;
15271;SDS011;7737;51.578;7.268;2023-01-26T04:44:20;115.27;;;45.53;;
15271;SDS011;7737;51.578;7.268;2023-01-26T04:46:46;113.17;;;46.43;;
15271;SDS011;7737;51.578;7.268;2023-01-26T04:49:13;109.90;;;45.23;;
15271;SDS011;7737;51.578;7.268;2023-01-26T04:51:39;115.13;;;45.13;;
15271;SDS011;7737;51.578;7.268;2023-01-26T04:54:07;104.87;;;43.60;;
15271;SDS011;7737;51.578;7.268;2023-01-26T04:56:34;108.77;;;44.20;;
15271;SDS011;7737;51.578;7.268;2023-01-26T04:59:01;109.60;;;42.27;;
15271;SDS011;7737;51.578;7.268;2023-01-26T05:01:28;110.83;;;44.13;;
15271;SDS011;7737;51.578;7.268;2023-01-26T05:03:58;104.23;;;43.30;;
15271;SDS011;7737;51.578;7.268;2023-01-26T05:06:24;109.07;;;45.00;;
15271;SDS011;7737;51.578;7.268;2023-01-26T05:08:51;113.00;;;45.50;;
15271;SDS011;7737;51.578;7.268;2023-01-26T05:11:18;111.07;;;44.83;;
15271;SDS011;7737;51.578;7.268;2023-01-26T05:13:45;111.93;;;45.10;;
15271;SDS011;7737;51.578;7.268;2023-01-26T05:16:11;110.63;;;44.50;;
15271;SDS011;7737;51.578;7.268;2023-01-26T05:18:38;114.23;;;46.17;;
15271;SDS011;7737;51.578;7.268;2023-01-26T05:21:04;106.37;;;45.37;;
15271;SDS011;7737;51.578;7.268;2023-01-26T05:23:31;106.63;;;45.17;;
15271;SDS011;7737;51.578;7.268;2023-01-26T05:25:57;111.57;;;45.63;;
15271;SDS011;7737;51.578;7.268;2023-01-26T05:28:25;106.67;;;43.97;;
15271;SDS011;7737;51.578;7.268;2023-01-26T05:30:51;106.27;;;42.70;;
15271;SDS011;7737;51.578;7.268;2023-01-26T05:33:17;112.23;;;43.63;;
15271;SDS011;7737;51.578;7.268;2023-01-26T05:35:46;106.13;;;43.90;;
15271;SDS011;7737;51.578;7.268;2023-01-26T05:38:12;97.77;;;41.07;;
15271;SDS011;7737;51.578;7.268;2023-01-26T05:40:38;105.80;;;44.23;;
15271;SDS011;7737;51.578;7.268;2023-01-26T05:43:05;106.73;;;41.50;;
15271;SDS011;7737;51.578;7.268;2023-01-26T05:45:33;107.03;;;41.83;;
15271;SDS011;7737;51.578;7.268;2023-01-26T05:48:00;107.67;;;41.73;;
15271;SDS011;7737;51.578;7.268;2023-01-26T05:50:26;115.83;;;44.00;;
15271;SDS011;7737;51.578;7.268;2023-01-26T05:52:52;110.70;;;41.33;;
15271;SDS011;7737;51.578;7.268;2023-01-26T05:55:19;109.33;;;42.33;;
15271;SDS011;7737;51.578;7.268;2023-01-26T05:57:45;102.37;;;40.87;;
15271;SDS011;7737;51.578;7.268;2023-01-26T06:00:12;109.33;;;41.77;;
15271;SDS011;7737;51.578;7.268;2023-01-26T06:02:40;103.20;;;40.03;;
15271;SDS011;7737;51.578;7.268;2023-01-26T06:05:07;99.67;;;39.57;;
15271;SDS011;7737;51.578;7.268;2023-01-26T06:07:33;97.13;;;39.43;;
15271;SDS011;7737;51.578;7.268;2023-01-26T06:10:00;95.57;;;39.93;;
15271;SDS011;7737;51.578;7.268;2023-01-26T06:12:26;99.93;;;40.13;;
15271;SDS011;7737;51.578;7.268;2023-01-26T06:14:55;93.97;;;38.87;;
15271;SDS011;7737;51.578;7.268;2023-01-26T06:17:22;91.77;;;36.77;;
15271;SDS011;7737;51.578;7.268;2023-01-26T06:19:49;90.00;;;37.67;;
15271;SDS011;7737;51.578;7.268;2023-01-26T06:22:16;85.30;;;37.00;;
15271;SDS011;7737;51.578;7.268;2023-01-26T06:24:42;87.30;;;37.30;;
15271;SDS011;7737;51.578;7.268;2023-01-26T06:27:10;84.13;;;35.70;;
15271;SDS011;7737;51.578;7.268;2023-01-26T06:29:37;81.07;;;35.03;;
15271;SDS011;7737;51.578;7.268;2023-01-26T06:32:04;79.57;;;34.83;;
15271;SDS011;7737;51.578;7.268;2023-01-26T06:34:30;73.77;;;34.00;;
15271;SDS011;7737;51.578;7.268;2023-01-26T06:36:58;75.20;;;34.67;;
15271;SDS011;7737;51.578;7.268;2023-01-26T06:39:24;73.03;;;34.57;;
15271;SDS011;7737;51.578;7.268;2023-01-26T06:41:50;77.60;;;34.67;;
15271;SDS011;7737;51.578;7.268;2023-01-26T06:44:17;77.23;;;34.60;;
15271;SDS011;7737;51.578;7.268;2023-01-26T06:46:43;73.77;;;33.67;;
15271;SDS011;7737;51.578;7.268;2023-01-26T06:49:09;72.10;;;33.27;;
15271;SDS011;7737;51.578;7.268;2023-01-26T06:51:52;79.30;;;33.47;;
15271;SDS011;7737;51.578;7.268;2023-01-26T06:54:21;73.27;;;33.73;;
15271;SDS011;7737;51.578;7.268;2023-01-26T06:56:48;74.63;;;33.43;;
15271;SDS011;7737;51.578;7.268;2023-01-26T06:59:14;69.77;;;32.80;;
15271;SDS011;7737;51.578;7.268;2023-01-26T07:01:42;67.57;;;32.50;;
15271;SDS011;7737;51.578;7.268;2023-01-26T07:04:09;77.17;;;35.07;;
15271;SDS011;7737;51.578;7.268;2023-01-26T07:06:35;74.90;;;34.03;;
15271;SDS011;7737;51.578;7.268;2023-01-26T07:09:02;71.60;;;32.63;;
15271;SDS011;7737;51.578;7.268;2023-01-26T07:11:29;73.57;;;34.13;;
15271;SDS011;7737;51.578;7.268;2023-01-26T07:13:56;76.73;;;34.20;;
15271;SDS011;7737;51.578;7.268;2023-01-26T07:16:23;74.17;;;34.03;;
15271;SDS011;7737;51.578;7.268;2023-01-26T07:18:49;67.20;;;33.63;;
15271;SDS011;7737;51.578;7.268;2023-01-26T07:21:16;68.83;;;32.43;;
15271;SDS011;7737;51.578;7.268;2023-01-26T07:23:43;75.63;;;33.60;;
15271;SDS011;7737;51.578;7.268;2023-01-26T07:26:09;68.03;;;31.53;;
15271;SDS011;7737;51.578;7.268;2023-01-26T07:28:37;72.10;;;33.07;;
15271;SDS011;7737;51.578;7.268;2023-01-26T07:31:04;68.63;;;33.37;;
15271;SDS011;7737;51.578;7.268;2023-01-26T07:33:31;74.93;;;34.17;;
15271;SDS011;7737;51.578;7.268;2023-01-26T07:35:57;72.93;;;33.00;;
15271;SDS011;7737;51.578;7.268;2023-01-26T07:38:24;71.33;;;33.10;;
15271;SDS011;7737;51.578;7.268;2023-01-26T07:40:50;75.37;;;33.00;;
15271;SDS011;7737;51.578;7.268;2023-01-26T07:43:17;74.00;;;33.83;;
15271;SDS011;7737;51.578;7.268;2023-01-26T07:45:45;73.30;;;34.13;;
15271;SDS011;7737;51.578;7.268;2023-01-26T07:48:12;75.23;;;34.97;;
15271;SDS011;7737;51.578;7.268;2023-01-26T07:50:38;79.47;;;34.17;;
15271;SDS011;7737;51.578;7.268;2023-01-26T07:53:05;77.80;;;34.37;;
15271;SDS011;7737;51.578;7.268;2023-01-26T07:55:33;75.57;;;33.83;;
15271;SDS011;7737;51.578;7.268;2023-01-26T07:57:59;73.73;;;33.30;;
15271;SDS011;7737;51.578;7.268;2023-01-26T08:00:25;69.13;;;31.73;;
15271;SDS011;7737;51.578;7.268;2023-01-26T08:02:53;75.47;;;33.47;;
15271;SDS011;7737;51.578;7.268;2023-01-26T08:05:20;74.83;;;32.53;;
15271;SDS011;7737;51.578;7.268;2023-01-26T08:07:46;63.80;;;31.67;;
15271;SDS011;7737;51.578;7.268;2023-01-26T08:10:13;64.20;;;30.30;;
15271;SDS011;7737;51.578;7.268;2023-01-26T08:12:39;60.60;;;30.17;;
15271;SDS011;7737;51.578;7.268;2023-01-26T08:15:06;64.37;;;30.33;;
15271;SDS011;7737;51.578;7.268;2023-01-26T08:17:32;60.47;;;29.63;;
15271;SDS011;7737;51.578;7.268;2023-01-26T08:20:00;62.03;;;29.13;;
15271;SDS011;7737;51.578;7.268;2023-01-26T08:22:26;64.47;;;30.40;;
15271;SDS011;7737;51.578;7.268;2023-01-26T08:24:52;64.07;;;31.40;;
15271;SDS011;7737;51.578;7.268;2023-01-26T08:27:19;63.83;;;30.20;;
15271;SDS011;7737;51.578;7.268;2023-01-26T08:29:46;60.07;;;30.17;;
15271;SDS011;7737;51.578;7.268;2023-01-26T08:32:13;61.93;;;29.83;;
15271;SDS011;7737;51.578;7.268;2023-01-26T08:34:39;67.53;;;31.07;;
15271;SDS011;7737;51.578;7.268;2023-01-26T08:37:07;65.03;;;32.30;;
15271;SDS011;7737;51.578;7.268;2023-01-26T08:39:33;69.30;;;32.10;;
15271;SDS011;7737;51.578;7.268;2023-01-26T08:41:59;66.07;;;31.93;;
15271;SDS011;7737;51.578;7.268;2023-01-26T08:44:26;63.80;;;32.53;;
15271;SDS011;7737;51.578;7.268;2023-01-26T08:46:52;61.90;;;31.07;;
15271;SDS011;7737;51.578;7.268;2023-01-26T08:49:18;70.17;;;33.97;;
15271;SDS011;7737;51.578;7.268;2023-01-26T08:51:45;65.33;;;33.33;;
15271;SDS011;7737;51.578;7.268;2023-01-26T08:54:12;69.87;;;36.33;;
15271;SDS011;7737;51.578;7.268;2023-01-26T08:56:38;67.43;;;34.63;;
15271;SDS011;7737;51.578;7.268;2023-01-26T08:59:06;65.70;;;32.07;;
15271;SDS011;7737;51.578;7.268;2023-01-26T09:01:32;66.87;;;33.87;;
15271;SDS011;7737;51.578;7.268;2023-01-26T09:03:58;68.63;;;34.17;;
15271;SDS011;7737;51.578;7.268;2023-01-26T09:06:25;65.57;;;32.53;;
15271;SDS011;7737;51.578;7.268;2023-01-26T09:08:52;62.87;;;31.67;;
15271;SDS011;7737;51.578;7.268;2023-01-26T09:11:20;61.00;;;30.97;;
15271;SDS011;7737;51.578;7.268;2023-01-26T09:13:48;59.87;;;31.50;;
15271;SDS011;7737;51.578;7.268;2023-01-26T09:16:20;61.00;;;31.20;;
15271;SDS011;7737;51.578;7.268;2023-01-26T09:18:47;61.27;;;30.70;;
15271;SDS011;7737;51.578;7.268;2023-01-26T09:21:14;61.70;;;30.70;;
15271;SDS011;7737;51.578;7.268;2023-01-26T09:23:40;60.20;;;30.80;;
15271;SDS011;7737;51.578;7.268;2023-01-26T09:26:06;57.57;;;29.23;;
15271;SDS011;7737;51.578;7.268;2023-01-26T09:28:34;59.13;;;29.87;;
15271;SDS011;7737;51.578;7.268;2023-01-26T09:31:01;52.40;;;28.47;;
15271;SDS011;7737;51.578;7.268;2023-01-26T09:33:28;54.07;;;28.33;;
15271;SDS011;7737;51.578;7.268;2023-01-26T09:35:54;55.00;;;29.30;;
15271;SDS011;7737;51.578;7.268;2023-01-26T09:38:20;58.47;;;30.10;;
15271;SDS011;7737;51.578;7.268;2023-01-26T09:40:47;57.40;;;28.47;;
15271;SDS011;7737;51.578;7.268;2023-01-26T09:43:19;53.87;;;27.87;;
15271;SDS011;7737;51.578;7.268;2023-01-26T09:45:52;55.87;;;28.77;;
15271;SDS011;7737;51.578;7.268;2023-01-26T09:48:21;57.27;;;29.37;;
15271;SDS011;7737;51.578;7.268;2023-01-26T09:50:53;56.73;;;29.13;;
15271;SDS011;7737;51.578;7.268;2023-01-26T09:53:21;52.47;;;28.10;;
15271;SDS011;7737;51.578;7.268;2023-01-26T09:55:50;51.67;;;27.37;;
15271;SDS011;7737;51.578;7.268;2023-01-26T09:58:18;49.77;;;27.47;;
15271;SDS011;7737;51.578;7.268;2023-01-26T10:00:47;57.40;;;29.03;;
15271;SDS011;7737;51.578;7.268;2023-01-26T10:03:19;51.53;;;27.80;;
15271;SDS011;7737;51.578;7.268;2023-01-26T10:05:50;51.60;;;26.53;;
15271;SDS011;7737;51.578;7.268;2023-01-26T10:08:18;50.80;;;25.60;;
15271;SDS011;7737;51.578;7.268;2023-01-26T10:10:52;47.90;;;24.13;;
15271;SDS011;7737;51.578;7.268;2023-01-26T10:13:19;47.13;;;24.70;;
15271;SDS011;7737;51.578;7.268;2023-01-26T10:15:48;51.33;;;23.67;;
15271;SDS011;7737;51.578;7.268;2023-01-26T10:18:18;42.57;;;22.63;;
15271;SDS011;7737;51.578;7.268;2023-01-26T10:20:46;42.17;;;22.40;;
15271;SDS011;7737;51.578;7.268;2023-01-26T10:23:14;40.57;;;21.63;;
15271;SDS011;7737;51.578;7.268;2023-01-26T10:25:43;41.57;;;19.77;;
15271;SDS011;7737;51.578;7.268;2023-01-26T10:28:11;35.87;;;18.57;;
15271;SDS011;7737;51.578;7.268;2023-01-26T10:30:38;33.07;;;18.03;;
15271;SDS011;7737;51.578;7.268;2023-01-26T10:33:07;27.90;;;15.27;;
15271;SDS011;7737;51.578;7.268;2023-01-26T10:35:35;24.77;;;13.97;;
15271;SDS011;7737;51.578;7.268;2023-01-26T10:40:46;22.57;;;12.40;;
15271;SDS011;7737;51.578;7.268;2023-01-26T10:43:15;20.20;;;12.10;;
15271;SDS011;7737;51.578;7.268;2023-01-26T10:45:43;22.43;;;12.53;;
15271;SDS011;7737;51.578;7.268;2023-01-26T10:48:15;23.80;;;13.60;;
15271;SDS011;7737;51.578;7.268;2023-01-26T10:50:43;26.40;;;14.27;;
15271;SDS011;7737;51.578;7.268;2023-01-26T10:53:13;30.17;;;15.30;;
15271;SDS011;7737;51.578;7.268;2023-01-26T10:55:40;31.90;;;16.90;;
15271;SDS011;7737;51.578;7.268;2023-01-26T10:58:08;33.83;;;17.60;;
15271;SDS011;7737;51.578;7.268;2023-01-26T11:00:54;33.43;;;18.10;;
15271;SDS011;7737;51.578;7.268;2023-01-26T11:03:21;26.40;;;14.20;;
15271;SDS011;7737;51.578;7.268;2023-01-26T11:06:04;25.67;;;14.67;;
15271;SDS011;7737;51.578;7.268;2023-01-26T11:08:31;23.37;;;13.93;;
15271;SDS011;7737;51.578;7.268;2023-01-26T11:10:59;28.30;;;15.50;;
15271;SDS011;7737;51.578;7.268;2023-01-26T11:13:28;28.23;;;15.63;;
15271;SDS011;7737;51.578;7.268;2023-01-26T11:16:00;27.80;;;15.73;;
15271;SDS011;7737;51.578;7.268;2023-01-26T11:18:31;25.60;;;14.77;;
15271;SDS011;7737;51.578;7.268;2023-01-26T11:21:02;27.00;;;15.03;;
15271;SDS011;7737;51.578;7.268;2023-01-26T11:23:38;23.53;;;14.10;;
15271;SDS011;7737;51.578;7.268;2023-01-26T11:26:19;21.87;;;13.13;;
15271;SDS011;7737;51.578;7.268;2023-01-26T11:28:53;22.80;;;12.57;;
15271;SDS011;7737;51.578;7.268;2023-01-26T11:31:24;18.73;;;11.30;;
15271;SDS011;7737;51.578;7.268;2023-01-26T11:33:58;20.53;;;10.53;;
15271;SDS011;7737;51.578;7.268;2023-01-26T11:36:27;17.07;;;9.77;;
15271;SDS011;7737;51.578;7.268;2023-01-26T11:39:02;20.17;;;11.60;;
15271;SDS011;7737;51.578;7.268;2023-01-26T11:41:35;19.23;;;9.93;;
15271;SDS011;7737;51.578;7.268;2023-01-26T11:44:17;17.27;;;10.57;;
15271;SDS011;7737;51.578;7.268;2023-01-26T11:49:37;14.03;;;8.83;;
15271;SDS011;7737;51.578;7.268;2023-01-26T11:52:08;14.50;;;8.83;;
15271;SDS011;7737;51.578;7.268;2023-01-26T11:54:41;16.97;;;9.40;;
15271;SDS011;7737;51.578;7.268;2023-01-26T11:57:12;15.30;;;8.87;;
15271;SDS011;7737;51.578;7.268;2023-01-26T11:59:41;14.97;;;9.17;;
15271;SDS011;7737;51.578;7.268;2023-01-26T12:02:15;15.07;;;9.33;;
15271;SDS011;7737;51.578;7.268;2023-01-26T12:04:45;16.60;;;9.50;;
15271;SDS011;7737;51.578;7.268;2023-01-26T12:07:13;16.77;;;9.37;;
15271;SDS011;7737;51.578;7.268;2023-01-26T12:09:42;16.47;;;10.13;;
15271;SDS011;7737;51.578;7.268;2023-01-26T12:12:11;15.07;;;10.10;;
15271;SDS011;7737;51.578;7.268;2023-01-26T12:14:40;16.40;;;10.13;;
15271;SDS011;7737;51.578;7.268;2023-01-26T12:17:19;16.17;;;10.27;;
15271;SDS011;7737;51.578;7.268;2023-01-26T12:19:51;15.10;;;10.53;;
15271;SDS011;7737;51.578;7.268;2023-01-26T12:22:21;15.53;;;9.67;;
15271;SDS011;7737;51.578;7.268;2023-01-26T12:24:56;15.57;;;10.17;;
15271;SDS011;7737;51.578;7.268;2023-01-26T12:27:30;12.67;;;8.70;;
15271;SDS011;7737;51.578;7.268;2023-01-26T12:30:00;13.57;;;9.13;;
15271;SDS011;7737;51.578;7.268;2023-01-26T12:32:28;14.77;;;8.50;;
15271;SDS011;7737;51.578;7.268;2023-01-26T12:34:54;14.90;;;9.07;;
15271;SDS011;7737;51.578;7.268;2023-01-26T12:37:24;12.97;;;8.43;;
15271;SDS011;7737;51.578;7.268;2023-01-26T12:39:59;11.40;;;7.40;;
15271;SDS011;7737;51.578;7.268;2023-01-26T12:42:34;14.53;;;8.83;;
15271;SDS011;7737;51.578;7.268;2023-01-26T12:45:05;12.97;;;8.77;;
15271;SDS011;7737;51.578;7.268;2023-01-26T12:47:33;13.37;;;8.93;;
15271;SDS011;7737;51.578;7.268;2023-01-26T12:50:00;12.50;;;8.17;;
15271;SDS011;7737;51.578;7.268;2023-01-26T12:52:30;12.23;;;8.17;;
15271;SDS011;7737;51.578;7.268;2023-01-26T12:55:00;14.83;;;8.73;;
15271;SDS011;7737;51.578;7.268;2023-01-26T12:57:29;14.07;;;9.63;;
15271;SDS011;7737;51.578;7.268;2023-01-26T13:00:00;13.77;;;9.07;;
15271;SDS011;7737;51.578;7.268;2023-01-26T13:02:29;14.03;;;9.10;;
15271;SDS011;7737;51.578;7.268;2023-01-26T13:04:56;13.43;;;8.90;;
15271;SDS011;7737;51.578;7.268;2023-01-26T13:07:30;12.47;;;8.50;;
15271;SDS011;7737;51.578;7.268;2023-01-26T13:12:45;14.00;;;8.87;;
15271;SDS011;7737;51.578;7.268;2023-01-26T13:15:13;14.80;;;9.13;;
15271;SDS011;7737;51.578;7.268;2023-01-26T13:17:51;16.27;;;9.80;;
15271;SDS011;7737;51.578;7.268;2023-01-26T13:20:22;15.07;;;9.83;;
15271;SDS011;7737;51.578;7.268;2023-01-26T13:22:48;17.23;;;9.90;;
15271;SDS011;7737;51.578;7.268;2023-01-26T13:25:15;13.97;;;9.50;;
15271;SDS011;7737;51.578;7.268;2023-01-26T13:27:43;17.27;;;10.57;;
15271;SDS011;7737;51.578;7.268;2023-01-26T13:33:03;18.47;;;11.37;;
15271;SDS011;7737;51.578;7.268;2023-01-26T13:35:30;21.00;;;10.87;;
15271;SDS011;7737;51.578;7.268;2023-01-26T13:37:58;17.90;;;10.47;;
15271;SDS011;7737;51.578;7.268;2023-01-26T13:40:27;17.53;;;11.07;;
15271;SDS011;7737;51.578;7.268;2023-01-26T13:42:56;19.07;;;11.53;;
15271;SDS011;7737;51.578;7.268;2023-01-26T13:45:25;20.37;;;10.67;;
15271;SDS011;7737;51.578;7.268;2023-01-26T13:47:54;20.47;;;10.87;;
15271;SDS011;7737;51.578;7.268;2023-01-26T13:50:27;22.30;;;11.97;;
15271;SDS011;7737;51.578;7.268;2023-01-26T13:52:54;23.87;;;11.50;;
15271;SDS011;7737;51.578;7.268;2023-01-26T13:55:21;20.83;;;11.30;;
15271;SDS011;7737;51.578;7.268;2023-01-26T13:57:48;20.90;;;11.23;;
15271;SDS011;7737;51.578;7.268;2023-01-26T14:00:15;22.60;;;11.53;;
15271;SDS011;7737;51.578;7.268;2023-01-26T14:02:44;25.07;;;12.23;;
15271;SDS011;7737;51.578;7.268;2023-01-26T14:05:20;29.63;;;12.67;;
15271;SDS011;7737;51.578;7.268;2023-01-26T14:07:48;26.53;;;11.57;;
15271;SDS011;7737;51.578;7.268;2023-01-26T14:10:15;26.27;;;12.50;;
15271;SDS011;7737;51.578;7.268;2023-01-26T14:12:42;29.77;;;13.07;;
15271;SDS011;7737;51.578;7.268;2023-01-26T14:15:18;27.23;;;13.97;;
15271;SDS011;7737;51.578;7.268;2023-01-26T14:17:47;33.47;;;14.13;;
15271;SDS011;7737;51.578;7.268;2023-01-26T14:20:20;31.67;;;13.40;;
15271;SDS011;7737;51.578;7.268;2023-01-26T14:25:32;36.73;;;14.60;;
15271;SDS011;7737;51.578;7.268;2023-01-26T14:27:58;38.57;;;16.40;;
15271;SDS011;7737;51.578;7.268;2023-01-26T14:30:25;37.87;;;15.13;;
15271;SDS011;7737;51.578;7.268;2023-01-26T14:32:55;34.73;;;14.53;;
15271;SDS011;7737;51.578;7.268;2023-01-26T14:35:23;38.43;;;15.03;;
15271;SDS011;7737;51.578;7.268;2023-01-26T14:38:02;34.80;;;14.70;;
15271;SDS011;7737;51.578;7.268;2023-01-26T14:40:29;35.83;;;14.93;;
15271;SDS011;7737;51.578;7.268;2023-01-26T14:42:57;41.13;;;15.97;;
15271;SDS011;7737;51.578;7.268;2023-01-26T14:45:25;32.47;;;14.60;;
15271;SDS011;7737;51.578;7.268;2023-01-26T14:47:54;38.30;;;15.57;;
15271;SDS011;7737;51.578;7.268;2023-01-26T14:50:22;47.57;;;18.83;;
15271;SDS011;7737;51.578;7.268;2023-01-26T14:52:52;40.90;;;19.07;;
15271;SDS011;7737;51.578;7.268;2023-01-26T14:55:20;39.13;;;16.73;;
15271;SDS011;7737;51.578;7.268;2023-01-26T14:57:47;43.47;;;17.70;;